Time;durP1;ratioP1;P1;durP2;ratioP2;P2;SDS_P1;SDS_P2;PMS_P1;PMS_P2;Temp;Humidity;BMP_temperature;BMP_pressure;BME280_temperature;BME280_humidity;BME280_pressure;Samples;Min_cycle;Max_cycle;Signal;HPM_P1;HPM_P2
2023/12/07 00:01:48;;;;;;;18.60;14.52;;;2.90;99.90;;;;;;5026811;28;20270;-87
2023/12/07 00:04:14;;;;;;;17.92;14.20;;;3.00;99.90;;;;;;4997472;28;20069;-87
2023/12/07 00:06:39;;;;;;;20.45;14.80;;;3.10;99.90;;;;;;4989666;28;20045;-87
2023/12/07 00:09:05;;;;;;;17.40;14.15;;;3.00;99.90;;;;;;5014337;28;20042;-87
2023/12/07 00:11:31;;;;;;;18.10;14.55;;;2.90;99.90;;;;;;4999329;28;20062;-88
2023/12/07 00:13:56;;;;;;;20.55;14.75;;;3.00;99.90;;;;;;5023363;28;20394;-88
2023/12/07 00:16:22;;;;;;;21.77;14.68;;;3.10;99.90;;;;;;5005149;28;20136;-87
2023/12/07 00:18:48;;;;;;;18.48;14.48;;;3.00;99.90;;;;;;5009093;28;20464;-87
2023/12/07 00:21:14;;;;;;;18.27;14.27;;;3.10;99.90;;;;;;5033584;28;20042;-87
2023/12/07 00:23:40;;;;;;;20.90;14.57;;;3.00;99.90;;;;;;5033192;28;20539;-87
2023/12/07 00:26:05;;;;;;;20.30;14.15;;;3.00;99.90;;;;;;4995962;28;20370;-87
2023/12/07 00:28:31;;;;;;;19.55;14.75;;;3.10;99.90;;;;;;4997028;28;20034;-87
2023/12/07 00:30:57;;;;;;;17.95;14.30;;;2.90;99.90;;;;;;5008081;28;20048;-87
2023/12/07 00:33:23;;;;;;;18.77;14.27;;;2.90;99.90;;;;;;4989457;28;20129;-87
2023/12/07 00:35:49;;;;;;;19.48;14.32;;;3.10;99.90;;;;;;4991451;28;20489;-87
2023/12/07 00:38:14;;;;;;;20.17;14.02;;;3.10;99.90;;;;;;5026887;28;20049;-86
2023/12/07 00:40:40;;;;;;;17.52;13.95;;;3.00;99.90;;;;;;4989322;28;20064;-87
2023/12/07 00:43:07;;;;;;;18.00;14.13;;;3.10;99.90;;;;;;5032447;28;20417;-86
2023/12/07 00:45:33;;;;;;;18.52;13.20;;;2.90;99.90;;;;;;5004321;28;20045;-88
2023/12/07 00:47:59;;;;;;;18.77;13.60;;;2.90;99.90;;;;;;5001695;28;20122;-87
2023/12/07 00:50:24;;;;;;;18.58;14.07;;;2.90;99.90;;;;;;5029081;28;20079;-87
2023/12/07 00:52:50;;;;;;;16.60;13.77;;;3.10;99.90;;;;;;5003698;28;20343;-87
2023/12/07 00:55:16;;;;;;;16.73;13.65;;;3.10;99.90;;;;;;5001027;28;20199;-87
2023/12/07 00:57:45;;;;;;;18.73;13.85;;;3.00;99.90;;;;;;4998475;28;20473;-87
2023/12/07 01:00:11;;;;;;;16.77;13.98;;;3.10;99.90;;;;;;5011264;28;20103;-87
2023/12/07 01:02:37;;;;;;;20.42;13.52;;;3.10;99.90;;;;;;4995636;28;20077;-87
2023/12/07 01:05:02;;;;;;;18.75;12.98;;;3.00;99.90;;;;;;4997886;28;20400;-87
2023/12/07 01:07:28;;;;;;;16.35;12.70;;;3.00;99.90;;;;;;4998662;28;20531;-87
2023/12/07 01:09:54;;;;;;;15.55;12.25;;;3.00;99.90;;;;;;5002309;28;20038;-87
2023/12/07 01:12:20;;;;;;;15.75;12.63;;;3.10;99.90;;;;;;5009310;28;20060;-86
2023/12/07 01:14:45;;;;;;;16.30;12.80;;;3.10;99.90;;;;;;4998504;28;20052;-87
2023/12/07 01:17:14;;;;;;;16.08;12.60;;;3.10;99.90;;;;;;5002255;28;20146;-86
2023/12/07 01:19:40;;;;;;;17.90;11.88;;;3.20;99.90;;;;;;5000836;28;20045;-87
2023/12/07 01:22:05;;;;;;;15.18;11.50;;;3.10;99.90;;;;;;5005308;28;20089;-87
2023/12/07 01:24:32;;;;;;;14.80;11.30;;;3.00;99.90;;;;;;5000280;28;20043;-87
2023/12/07 01:26:58;;;;;;;14.23;11.25;;;3.00;99.90;;;;;;5003290;28;20076;-87
2023/12/07 01:29:24;;;;;;;16.08;11.50;;;3.10;99.90;;;;;;5032583;28;20045;-86
2023/12/07 01:31:49;;;;;;;15.63;11.30;;;3.10;99.90;;;;;;5026171;28;20041;-86
2023/12/07 01:34:18;;;;;;;12.95;10.75;;;3.20;99.90;;;;;;5010698;28;20073;-86
2023/12/07 01:36:44;;;;;;;14.75;11.55;;;3.00;99.90;;;;;;5000010;28;20034;-87
2023/12/07 01:39:12;;;;;;;14.50;11.18;;;3.00;99.90;;;;;;5020609;28;20030;-87
2023/12/07 01:41:39;;;;;;;14.05;11.00;;;2.90;99.90;;;;;;5010540;28;20042;-87
2023/12/07 01:44:05;;;;;;;14.40;10.93;;;2.90;99.90;;;;;;4998307;28;20092;-87
2023/12/07 01:46:31;;;;;;;16.52;11.07;;;3.00;99.90;;;;;;4991970;28;20033;-87
2023/12/07 01:48:57;;;;;;;14.75;10.98;;;3.00;99.90;;;;;;4998608;28;20065;-87
2023/12/07 01:51:23;;;;;;;14.85;10.80;;;3.00;99.90;;;;;;5020445;28;20065;-87
2023/12/07 01:53:49;;;;;;;13.07;10.50;;;3.10;99.90;;;;;;5015149;28;20511;-87
2023/12/07 01:56:16;;;;;;;15.00;11.27;;;2.90;99.90;;;;;;5011931;28;20051;-87
2023/12/07 01:58:42;;;;;;;13.23;10.75;;;3.10;99.90;;;;;;5006475;28;20518;-87
2023/12/07 02:01:11;;;;;;;13.23;10.43;;;3.00;99.90;;;;;;5003744;28;20064;-86
2023/12/07 02:03:39;;;;;;;15.63;10.85;;;2.90;99.90;;;;;;5000689;28;20041;-87
2023/12/07 02:06:06;;;;;;;18.98;11.27;;;2.90;99.90;;;;;;4997780;28;20448;-88
2023/12/07 02:08:31;;;;;;;13.80;10.55;;;3.00;99.90;;;;;;4996398;28;20033;-87
2023/12/07 02:10:57;;;;;;;15.55;10.68;;;2.90;99.90;;;;;;5000520;28;20041;-87
2023/12/07 02:13:23;;;;;;;15.10;10.63;;;2.90;99.90;;;;;;4999156;28;20029;-85
2023/12/07 02:15:50;;;;;;;14.57;11.23;;;3.00;99.90;;;;;;5015628;28;20042;-88
2023/12/07 02:18:32;;;;;;;17.48;10.93;;;2.90;99.90;;;;;;4995879;28;20080;-87
2023/12/07 02:21:13;;;;;;;13.45;11.20;;;2.80;99.90;;;;;;4997925;28;20052;-87
2023/12/07 02:23:41;;;;;;;16.55;10.85;;;2.80;99.90;;;;;;5001921;28;20881;-88
2023/12/07 02:26:10;;;;;;;18.02;10.57;;;2.80;99.90;;;;;;5008960;28;20044;-87
2023/12/07 02:28:36;;;;;;;16.48;11.52;;;3.00;99.90;;;;;;5000419;28;20038;-87
2023/12/07 02:31:01;;;;;;;16.63;11.05;;;3.00;99.90;;;;;;5031963;28;20086;-87
2023/12/07 02:33:27;;;;;;;14.75;11.15;;;2.90;99.90;;;;;;5000065;28;20378;-87
2023/12/07 02:35:53;;;;;;;15.25;11.48;;;2.80;99.90;;;;;;5014257;28;20073;-87
2023/12/07 02:38:22;;;;;;;15.82;10.88;;;2.90;99.90;;;;;;4999493;28;20444;-87
2023/12/07 02:40:48;;;;;;;15.20;10.77;;;2.70;99.90;;;;;;5010025;28;20468;-87
2023/12/07 02:43:15;;;;;;;15.93;10.57;;;2.70;99.90;;;;;;4997726;28;20072;-87
2023/12/07 02:45:41;;;;;;;16.50;11.88;;;2.70;99.90;;;;;;5027634;28;20038;-87
2023/12/07 02:48:07;;;;;;;15.88;11.07;;;2.80;99.90;;;;;;4998036;28;20240;-87
2023/12/07 02:50:33;;;;;;;15.43;10.93;;;2.70;99.90;;;;;;4995992;28;20033;-88
2023/12/07 02:52:58;;;;;;;16.55;11.40;;;2.60;99.90;;;;;;5006865;28;20064;-87
2023/12/07 02:55:24;;;;;;;14.40;11.88;;;2.80;99.90;;;;;;5011850;28;20513;-87
2023/12/07 02:57:51;;;;;;;19.23;11.38;;;2.70;99.90;;;;;;4995139;28;20046;-87
2023/12/07 03:00:17;;;;;;;15.82;11.90;;;2.80;99.90;;;;;;5010466;28;20143;-87
2023/12/07 03:02:43;;;;;;;15.38;10.85;;;2.80;99.90;;;;;;5014752;28;20046;-87
2023/12/07 03:05:08;;;;;;;15.23;11.40;;;2.80;99.90;;;;;;4994734;28;20038;-87
2023/12/07 03:07:34;;;;;;;14.35;11.32;;;2.90;99.90;;;;;;4993928;28;20065;-86
2023/12/07 03:10:01;;;;;;;13.82;11.10;;;2.80;99.90;;;;;;4990382;28;20064;-87
2023/12/07 03:12:26;;;;;;;16.63;11.98;;;2.70;99.90;;;;;;5011859;28;20049;-87
2023/12/07 03:14:52;;;;;;;17.38;11.77;;;2.70;99.90;;;;;;5000662;28;20366;-87
2023/12/07 03:17:18;;;;;;;13.63;10.98;;;2.80;99.90;;;;;;5010785;28;20182;-87
2023/12/07 03:19:44;;;;;;;14.88;11.25;;;2.90;99.90;;;;;;5019294;28;20486;-87
2023/12/07 03:22:10;;;;;;;13.90;10.63;;;2.80;99.90;;;;;;5000531;28;20072;-87
2023/12/07 03:24:37;;;;;;;15.88;11.15;;;2.70;99.90;;;;;;5001159;28;20049;-86
2023/12/07 03:27:03;;;;;;;16.75;11.65;;;2.70;99.90;;;;;;5010983;28;20121;-87
2023/12/07 03:29:29;;;;;;;15.35;11.98;;;2.80;99.90;;;;;;4998544;28;20146;-87
2023/12/07 03:31:55;;;;;;;14.95;11.85;;;2.70;99.90;;;;;;4996267;28;20560;-87
2023/12/07 03:34:20;;;;;;;15.25;11.70;;;2.70;99.90;;;;;;4992492;28;20045;-88
2023/12/07 03:36:47;;;;;;;16.70;11.73;;;2.80;99.90;;;;;;4998928;28;20106;-88
2023/12/07 03:39:22;;;;;;;19.17;11.90;;;2.60;99.90;;;;;;4996950;28;20042;-86
2023/12/07 03:41:50;;;;;;;14.65;11.70;;;2.80;99.90;;;;;;5000335;28;20037;-87
2023/12/07 03:44:16;;;;;;;14.88;11.63;;;2.70;99.90;;;;;;5011621;28;20057;-87
2023/12/07 03:46:42;;;;;;;15.88;12.05;;;2.80;99.90;;;;;;5001237;28;20038;-87
2023/12/07 03:49:08;;;;;;;17.13;11.55;;;2.70;99.90;;;;;;4994575;28;20695;-87
2023/12/07 03:51:36;;;;;;;18.27;11.27;;;2.50;99.90;;;;;;5014448;28;20496;-87
2023/12/07 03:54:03;;;;;;;15.70;11.55;;;2.50;99.90;;;;;;5019248;28;20048;-87
2023/12/07 03:56:31;;;;;;;16.05;12.20;;;2.50;99.90;;;;;;5001840;28;20034;-87
2023/12/07 03:58:57;;;;;;;20.70;13.10;;;2.50;99.90;;;;;;4991975;28;20110;-86
2023/12/07 04:01:24;;;;;;;17.05;12.45;;;2.60;99.90;;;;;;4997469;28;20056;-87
2023/12/07 04:03:54;;;;;;;18.52;13.43;;;2.60;99.90;;;;;;5031665;28;20049;-87
2023/12/07 04:06:21;;;;;;;17.55;13.05;;;2.50;99.90;;;;;;4991913;28;20551;-87
2023/12/07 04:08:46;;;;;;;19.08;13.75;;;2.40;99.90;;;;;;5035834;28;20042;-87
2023/12/07 04:11:16;;;;;;;17.33;13.25;;;2.50;99.90;;;;;;4997704;28;20575;-86
2023/12/07 04:13:42;;;;;;;16.70;12.63;;;2.40;99.90;;;;;;5002029;28;20133;-87
2023/12/07 04:16:09;;;;;;;19.48;13.23;;;2.30;99.90;;;;;;5011699;28;20053;-87
2023/12/07 04:18:34;;;;;;;20.58;12.85;;;2.40;99.90;;;;;;4998097;28;20108;-87
2023/12/07 04:21:00;;;;;;;22.48;14.55;;;2.20;99.90;;;;;;4996921;28;20049;-87
2023/12/07 04:23:26;;;;;;;19.67;13.70;;;2.40;99.90;;;;;;5001444;28;20076;-87
2023/12/07 04:25:52;;;;;;;20.10;14.15;;;2.20;99.90;;;;;;5010052;28;20048;-87
2023/12/07 04:28:17;;;;;;;21.20;14.80;;;2.10;99.90;;;;;;5001323;28;20061;-85
2023/12/07 04:30:43;;;;;;;19.23;14.23;;;2.00;99.90;;;;;;5028652;28;20320;-88
2023/12/07 04:33:09;;;;;;;21.63;14.52;;;2.30;99.90;;;;;;5009985;28;20103;-88
2023/12/07 04:35:35;;;;;;;19.83;14.07;;;2.10;99.90;;;;;;5007579;28;20524;-87
2023/12/07 04:38:01;;;;;;;22.88;14.48;;;1.90;99.90;;;;;;5021490;28;20052;-87
2023/12/07 04:40:26;;;;;;;20.52;15.02;;;1.90;99.90;;;;;;4997664;28;20455;-87
2023/12/07 04:42:52;;;;;;;20.92;14.98;;;1.90;99.90;;;;;;5004681;28;20045;-87
2023/12/07 04:45:18;;;;;;;22.73;14.40;;;2.10;99.90;;;;;;4997618;28;20120;-88
2023/12/07 04:47:44;;;;;;;20.20;14.20;;;2.00;99.90;;;;;;5000875;28;20045;-88
2023/12/07 04:50:10;;;;;;;19.42;14.88;;;2.00;99.90;;;;;;5010748;28;20535;-87
2023/12/07 04:52:36;;;;;;;20.88;14.77;;;1.80;99.90;;;;;;5000225;28;20045;-88
2023/12/07 04:55:02;;;;;;;20.92;14.90;;;1.90;99.90;;;;;;4996992;28;20445;-88
2023/12/07 04:57:28;;;;;;;23.35;14.85;;;1.80;99.90;;;;;;4999315;28;20041;-88
2023/12/07 04:59:53;;;;;;;24.95;15.63;;;2.10;99.90;;;;;;5014850;28;20049;-88
2023/12/07 05:02:19;;;;;;;22.55;15.80;;;2.00;99.90;;;;;;4992541;28;20072;-88
2023/12/07 05:04:45;;;;;;;21.17;14.82;;;2.10;99.90;;;;;;5011370;28;20391;-87
2023/12/07 05:07:12;;;;;;;22.35;16.50;;;2.10;99.90;;;;;;5027786;28;20049;-87
2023/12/07 05:09:38;;;;;;;21.95;15.70;;;2.10;99.90;;;;;;4999583;28;20041;-88
2023/12/07 05:12:05;;;;;;;23.15;16.90;;;2.00;99.90;;;;;;4999118;28;20408;-88
2023/12/07 05:14:31;;;;;;;24.98;17.13;;;2.00;99.90;;;;;;5028527;28;20049;-88
2023/12/07 05:16:57;;;;;;;23.27;16.77;;;1.80;99.90;;;;;;5011277;28;20037;-87
2023/12/07 05:19:24;;;;;;;24.30;17.75;;;2.10;99.90;;;;;;4998624;28;20123;-88
2023/12/07 05:21:51;;;;;;;25.10;17.05;;;2.10;99.90;;;;;;5016322;28;20068;-87
2023/12/07 05:24:17;;;;;;;25.25;17.67;;;1.90;99.90;;;;;;5000825;28;20323;-88
2023/12/07 05:26:47;;;;;;;23.30;17.85;;;1.90;99.90;;;;;;4996899;28;20127;-88
2023/12/07 05:29:13;;;;;;;24.98;17.02;;;2.10;99.90;;;;;;5023841;28;20326;-87
2023/12/07 05:31:40;;;;;;;24.65;17.17;;;1.90;99.90;;;;;;5000028;28;20404;-88
2023/12/07 05:34:07;;;;;;;24.75;17.98;;;1.80;99.90;;;;;;5015471;28;20125;-88
2023/12/07 05:36:32;;;;;;;24.70;17.17;;;2.10;99.90;;;;;;5015961;28;20522;-79
2023/12/07 05:38:58;;;;;;;24.70;17.55;;;1.90;99.90;;;;;;5012658;28;20128;-79
2023/12/07 05:41:28;;;;;;;25.08;16.73;;;2.00;99.90;;;;;;5002334;28;20091;-79
2023/12/07 05:43:53;;;;;;;26.98;17.05;;;1.80;99.90;;;;;;4996322;28;20462;-79
2023/12/07 05:46:20;;;;;;;25.05;17.45;;;2.00;99.90;;;;;;4996678;28;20051;-78
2023/12/07 05:48:46;;;;;;;24.45;16.65;;;2.10;99.90;;;;;;5010116;28;20630;-79
2023/12/07 05:51:14;;;;;;;26.90;17.02;;;1.80;99.90;;;;;;5008743;28;20248;-78
2023/12/07 05:53:40;;;;;;;23.85;16.67;;;1.80;99.90;;;;;;5017209;28;20069;-79
2023/12/07 05:56:06;;;;;;;24.60;16.75;;;1.90;99.90;;;;;;4997159;28;20052;-79
2023/12/07 05:58:32;;;;;;;23.30;16.20;;;2.10;99.90;;;;;;5002089;28;20038;-79
2023/12/07 06:01:00;;;;;;;23.05;17.38;;;2.00;99.90;;;;;;4999339;28;20038;-79
2023/12/07 06:03:25;;;;;;;23.55;16.25;;;2.10;99.90;;;;;;5008776;28;20052;-79
2023/12/07 06:05:52;;;;;;;23.40;15.88;;;1.90;99.90;;;;;;4996367;28;20042;-79
2023/12/07 06:08:17;;;;;;;25.35;16.98;;;2.10;99.90;;;;;;5001751;28;20038;-79
2023/12/07 06:10:43;;;;;;;25.48;17.13;;;2.00;99.90;;;;;;5014539;28;20038;-79
2023/12/07 06:13:10;;;;;;;24.45;16.73;;;2.00;99.90;;;;;;5016650;28;20274;-79
2023/12/07 06:15:36;;;;;;;24.13;16.48;;;2.00;99.90;;;;;;5012142;28;20424;-78
2023/12/07 06:18:05;;;;;;;21.90;15.20;;;1.90;99.90;;;;;;4992903;28;20100;-78
2023/12/07 06:20:31;;;;;;;23.95;15.98;;;2.10;99.90;;;;;;5009723;28;20594;-79
2023/12/07 06:22:57;;;;;;;24.65;16.27;;;2.10;99.90;;;;;;5041392;28;20072;-79
2023/12/07 06:25:23;;;;;;;24.35;16.30;;;2.00;99.90;;;;;;5011432;28;20041;-79
2023/12/07 06:27:49;;;;;;;24.98;17.10;;;1.80;99.90;;;;;;5001696;28;20048;-79
2023/12/07 06:30:15;;;;;;;22.30;15.65;;;2.10;99.90;;;;;;4998098;28;20120;-79
2023/12/07 06:32:40;;;;;;;21.92;16.58;;;1.80;99.90;;;;;;5004705;28;20181;-79
2023/12/07 06:35:07;;;;;;;24.50;15.95;;;2.00;99.90;;;;;;4996416;28;20128;-79
2023/12/07 06:37:33;;;;;;;23.58;15.82;;;2.00;99.90;;;;;;5008861;28;20410;-79
2023/12/07 06:40:00;;;;;;;23.92;16.67;;;2.00;99.90;;;;;;5005743;28;20677;-79
2023/12/07 06:42:26;;;;;;;26.25;16.70;;;1.90;99.90;;;;;;5001178;28;20104;-79
2023/12/07 06:44:52;;;;;;;22.02;15.65;;;1.80;99.90;;;;;;5014753;28;20149;-79
2023/12/07 06:47:18;;;;;;;22.88;16.02;;;1.80;99.90;;;;;;5008285;28;20042;-78
2023/12/07 06:49:45;;;;;;;25.05;17.52;;;2.10;99.90;;;;;;4994553;28;20049;-79
2023/12/07 06:52:11;;;;;;;29.20;16.70;;;1.90;99.90;;;;;;4994326;28;20050;-79
2023/12/07 06:54:38;;;;;;;24.52;16.92;;;2.00;99.90;;;;;;4992862;28;20038;-79
2023/12/07 06:57:06;;;;;;;24.77;16.75;;;1.90;99.90;;;;;;4993932;28;20037;-79
2023/12/07 06:59:32;;;;;;;29.40;17.20;;;2.20;99.90;;;;;;5006671;28;20064;-79
2023/12/07 07:01:58;;;;;;;25.48;17.92;;;2.10;99.90;;;;;;4993187;28;20405;-79
2023/12/07 07:04:24;;;;;;;26.98;17.88;;;1.80;99.90;;;;;;5001270;28;20074;-79
2023/12/07 07:06:51;;;;;;;24.15;16.88;;;1.90;99.90;;;;;;5011619;28;20073;-79
2023/12/07 07:09:17;;;;;;;25.00;16.50;;;2.00;99.90;;;;;;5018684;28;20124;-79
2023/12/07 07:11:47;;;;;;;27.58;17.88;;;2.00;99.90;;;;;;4991897;28;20448;-79
2023/12/07 07:14:13;;;;;;;27.88;18.58;;;1.90;99.90;;;;;;5031445;28;20041;-79
2023/12/07 07:16:38;;;;;;;26.83;17.98;;;2.00;99.90;;;;;;4992764;28;20061;-79
2023/12/07 07:19:04;;;;;;;26.40;17.67;;;1.80;99.90;;;;;;5039235;28;20050;-79
2023/12/07 07:21:30;;;;;;;29.10;18.52;;;2.10;99.90;;;;;;5008589;28;21418;-79
2023/12/07 07:23:56;;;;;;;27.35;18.60;;;2.10;99.90;;;;;;5009474;28;20187;-79
2023/12/07 07:26:22;;;;;;;31.75;19.00;;;1.90;99.90;;;;;;4990890;28;20094;-79
2023/12/07 07:28:47;;;;;;;27.38;19.48;;;2.10;99.90;;;;;;4995469;28;20038;-79
2023/12/07 07:31:13;;;;;;;30.27;19.27;;;2.00;99.90;;;;;;4995471;28;20045;-79
2023/12/07 07:33:39;;;;;;;31.80;20.25;;;1.90;99.90;;;;;;5040382;28;20042;-79
2023/12/07 07:36:05;;;;;;;30.75;20.25;;;2.00;99.90;;;;;;4994251;28;20045;-79
2023/12/07 07:38:30;;;;;;;30.38;21.17;;;2.00;99.90;;;;;;4999152;28;20128;-79
2023/12/07 07:40:56;;;;;;;34.30;22.15;;;1.80;99.90;;;;;;5012172;28;20037;-79
2023/12/07 07:43:22;;;;;;;36.53;22.45;;;1.70;99.90;;;;;;4999639;28;20448;-79
2023/12/07 07:45:47;;;;;;;33.22;21.23;;;1.80;99.90;;;;;;5016430;28;20470;-79
2023/12/07 07:48:13;;;;;;;32.40;21.40;;;1.70;99.90;;;;;;4990363;28;20045;-79
2023/12/07 07:50:39;;;;;;;38.72;24.30;;;2.00;99.90;;;;;;4996731;28;20117;-79
2023/12/07 07:53:04;;;;;;;42.85;25.08;;;1.90;99.90;;;;;;5014951;28;20241;-79
2023/12/07 07:55:31;;;;;;;38.90;24.20;;;1.90;99.90;;;;;;4996262;28;20050;-79
2023/12/07 07:57:56;;;;;;;35.40;23.50;;;1.70;99.90;;;;;;5010777;28;20069;-79
2023/12/07 08:00:25;;;;;;;38.45;25.08;;;1.80;99.90;;;;;;4998234;28;20574;-79
2023/12/07 08:02:51;;;;;;;39.08;23.85;;;1.60;99.90;;;;;;4997945;28;20050;-79
2023/12/07 08:05:18;;;;;;;40.63;26.48;;;1.60;99.90;;;;;;5000850;28;20052;-79
2023/12/07 08:07:43;;;;;;;45.03;29.88;;;1.80;99.90;;;;;;5014481;28;20268;-79
2023/12/07 08:10:09;;;;;;;48.75;30.73;;;1.60;99.90;;;;;;5020132;28;20119;-79
2023/12/07 08:12:35;;;;;;;41.53;28.30;;;1.60;99.90;;;;;;5011031;28;20049;-79
2023/12/07 08:15:01;;;;;;;48.17;30.48;;;1.60;99.90;;;;;;5018916;28;20699;-79
2023/12/07 08:17:27;;;;;;;44.90;28.35;;;1.80;99.90;;;;;;5015668;28;20152;-79
2023/12/07 08:19:53;;;;;;;44.92;28.27;;;1.80;99.90;;;;;;5000274;28;20033;-79
2023/12/07 08:22:20;;;;;;;45.03;28.00;;;1.60;99.90;;;;;;5001817;28;20064;-79
2023/12/07 08:24:46;;;;;;;45.60;29.05;;;1.70;99.90;;;;;;5030528;28;20649;-80
2023/12/07 08:27:11;;;;;;;46.75;29.15;;;1.80;99.90;;;;;;5029087;28;20045;-79
2023/12/07 08:29:37;;;;;;;42.53;27.75;;;1.60;99.90;;;;;;5029224;28;20370;-79
2023/12/07 08:32:03;;;;;;;48.22;30.00;;;1.60;99.90;;;;;;5012806;28;20350;-79
2023/12/07 08:34:29;;;;;;;47.53;28.45;;;1.70;99.90;;;;;;5012161;28;20042;-79
2023/12/07 08:36:55;;;;;;;42.45;29.25;;;1.60;99.90;;;;;;5021272;28;20607;-79
2023/12/07 08:39:21;;;;;;;43.95;28.40;;;1.90;99.90;;;;;;4996067;28;20660;-79
2023/12/07 08:41:46;;;;;;;42.72;29.00;;;1.80;99.90;;;;;;4996364;28;20076;-79
2023/12/07 08:44:12;;;;;;;46.13;28.35;;;1.70;99.90;;;;;;5013618;28;20554;-79
2023/12/07 08:46:38;;;;;;;40.28;28.15;;;1.80;99.90;;;;;;5044088;28;20472;-79
2023/12/07 08:49:04;;;;;;;47.25;29.63;;;1.90;99.90;;;;;;5011502;28;20606;-79
2023/12/07 08:51:30;;;;;;;47.78;29.42;;;1.70;99.90;;;;;;5000835;28;20576;-79
2023/12/07 08:53:56;;;;;;;47.13;29.60;;;2.00;99.90;;;;;;5001160;28;20092;-79
2023/12/07 08:56:22;;;;;;;51.47;32.05;;;1.70;99.90;;;;;;4996411;28;20116;-79
2023/12/07 08:58:47;;;;;;;50.03;31.10;;;1.80;99.90;;;;;;4999413;28;20052;-79
2023/12/07 09:01:13;;;;;;;52.13;31.13;;;1.80;99.90;;;;;;4991261;28;20045;-78
2023/12/07 09:03:39;;;;;;;43.65;29.42;;;1.90;99.90;;;;;;4997017;28;20038;-79
2023/12/07 09:06:06;;;;;;;51.13;32.80;;;1.90;99.90;;;;;;4997735;28;20145;-79
2023/12/07 09:08:31;;;;;;;52.13;32.08;;;1.70;99.90;;;;;;5000066;28;20073;-79
2023/12/07 09:10:57;;;;;;;48.15;31.35;;;1.80;99.90;;;;;;5018350;28;20524;-79
2023/12/07 09:13:23;;;;;;;58.60;38.30;;;1.90;99.90;;;;;;5003803;28;20041;-79
2023/12/07 09:15:49;;;;;;;71.75;44.63;;;2.00;99.90;;;;;;4991878;28;20045;-79
2023/12/07 09:18:14;;;;;;;59.95;40.42;;;1.80;99.90;;;;;;5023658;28;20444;-79
2023/12/07 09:20:45;;;;;;;52.03;34.42;;;1.70;99.90;;;;;;5035183;28;20072;-79
2023/12/07 09:23:12;;;;;;;49.13;31.83;;;1.80;99.90;;;;;;4995643;28;20134;-79
2023/12/07 09:25:38;;;;;;;50.28;32.95;;;1.80;99.90;;;;;;5009196;28;20037;-79
2023/12/07 09:28:04;;;;;;;46.65;31.67;;;2.00;99.90;;;;;;5024835;28;20041;-79
2023/12/07 09:30:30;;;;;;;49.05;31.42;;;1.80;99.90;;;;;;4996959;28;20037;-79
2023/12/07 09:32:56;;;;;;;47.58;31.05;;;2.00;99.90;;;;;;4995991;28;20033;-79
2023/12/07 09:35:21;;;;;;;49.90;32.72;;;2.30;99.90;;;;;;5043661;28;20048;-79
2023/12/07 09:37:49;;;;;;;48.70;33.42;;;2.10;99.90;;;;;;4997008;28;20184;-78
2023/12/07 09:40:22;;;;;;;46.10;31.63;;;2.10;99.90;;;;;;5007229;28;20045;-78
2023/12/07 09:42:48;;;;;;;45.83;30.70;;;2.40;99.90;;;;;;5030001;28;20041;-79
2023/12/07 09:45:16;;;;;;;45.10;30.77;;;2.20;99.90;;;;;;5011825;28;20073;-79
2023/12/07 09:47:43;;;;;;;43.35;29.23;;;2.50;99.90;;;;;;5030146;28;20081;-78
2023/12/07 09:50:09;;;;;;;45.20;29.25;;;2.30;99.90;;;;;;5002371;28;20589;-79
2023/12/07 09:52:36;;;;;;;39.85;28.42;;;2.60;99.90;;;;;;5020412;28;20385;-78
2023/12/07 09:55:06;;;;;;;41.03;28.45;;;2.50;99.90;;;;;;5000298;28;20481;-78
2023/12/07 09:57:33;;;;;;;45.22;27.92;;;2.70;99.90;;;;;;5010304;28;20046;-79
2023/12/07 09:59:59;;;;;;;42.22;27.80;;;2.50;99.90;;;;;;5014476;28;20049;-78
2023/12/07 10:02:26;;;;;;;43.58;27.42;;;2.60;99.90;;;;;;4993309;28;20052;-78
2023/12/07 10:05:10;;;;;;;42.97;27.52;;;2.60;99.90;;;;;;4994917;28;20041;-78
2023/12/07 10:07:39;;;;;;;40.38;27.08;;;2.70;99.90;;;;;;5016704;28;20123;-78
2023/12/07 10:10:05;;;;;;;39.22;25.83;;;2.70;99.90;;;;;;5013865;28;20042;-78
2023/12/07 10:12:34;;;;;;;38.63;26.08;;;2.70;99.90;;;;;;5011488;28;20489;-78
2023/12/07 10:15:20;;;;;;;38.38;26.00;;;2.80;99.90;;;;;;5018751;28;20037;-78
2023/12/07 10:17:47;;;;;;;37.85;25.30;;;3.10;99.90;;;;;;5007716;28;20072;-78
2023/12/07 10:20:18;;;;;;;38.17;26.42;;;3.00;99.90;;;;;;5002708;28;20814;-78
2023/12/07 10:22:45;;;;;;;39.60;25.05;;;3.00;99.90;;;;;;5040850;28;20235;-78
2023/12/07 10:25:11;;;;;;;39.13;26.15;;;3.10;99.90;;;;;;5003819;28;20416;-78
2023/12/07 10:27:40;;;;;;;38.92;24.83;;;3.00;99.90;;;;;;5007510;28;20045;-78
2023/12/07 10:30:08;;;;;;;36.53;25.40;;;3.20;99.90;;;;;;4997032;28;20441;-79
2023/12/07 10:32:39;;;;;;;35.22;24.65;;;3.30;99.90;;;;;;5005185;28;20049;-79
2023/12/07 10:35:07;;;;;;;35.33;24.00;;;3.30;99.90;;;;;;5005358;28;20052;-79
2023/12/07 10:37:33;;;;;;;35.45;24.20;;;3.30;99.90;;;;;;4994555;28;20467;-79
2023/12/07 10:39:58;;;;;;;34.33;23.40;;;3.20;99.90;;;;;;5004473;28;20274;-79
2023/12/07 10:42:25;;;;;;;34.33;23.27;;;3.30;99.90;;;;;;4996591;28;20056;-78
2023/12/07 10:44:56;;;;;;;37.33;24.30;;;3.30;99.90;;;;;;5000251;28;20489;-79
2023/12/07 10:47:22;;;;;;;36.17;23.92;;;3.40;99.90;;;;;;4997949;28;20112;-78
2023/12/07 10:49:53;;;;;;;36.63;24.95;;;3.40;99.90;;;;;;4998158;28;20053;-78
2023/12/07 10:52:23;;;;;;;36.05;23.67;;;3.40;99.90;;;;;;5006858;28;20046;-78
2023/12/07 10:55:05;;;;;;;33.67;23.10;;;3.50;99.90;;;;;;4994967;28;20034;-78
2023/12/07 10:57:34;;;;;;;32.58;22.88;;;3.50;99.90;;;;;;4998857;28;20049;-78
2023/12/07 11:00:01;;;;;;;34.38;23.38;;;3.60;99.90;;;;;;5015541;28;20505;-78
2023/12/07 11:02:32;;;;;;;36.10;24.17;;;3.50;99.90;;;;;;5023291;28;20053;-79
2023/12/07 11:04:59;;;;;;;34.60;23.33;;;3.70;99.90;;;;;;5034627;28;20497;-78
2023/12/07 11:07:32;;;;;;;33.42;23.70;;;3.80;99.90;;;;;;4998345;28;20037;-78
2023/12/07 11:10:05;;;;;;;33.47;22.98;;;3.70;99.90;;;;;;5000664;28;20045;-78
2023/12/07 11:12:34;;;;;;;35.13;22.80;;;3.80;99.90;;;;;;4996952;28;20110;-78
2023/12/07 11:15:01;;;;;;;35.70;23.40;;;3.80;99.90;;;;;;4996705;28;20369;-79
2023/12/07 11:17:27;;;;;;;32.25;22.15;;;3.70;99.90;;;;;;5008823;28;20046;-78
2023/12/07 11:19:52;;;;;;;31.42;22.08;;;3.70;99.90;;;;;;4996018;28;20045;-78
2023/12/07 11:22:23;;;;;;;31.88;22.02;;;3.90;99.90;;;;;;5008506;28;20393;-78
2023/12/07 11:24:58;;;;;;;32.50;23.02;;;3.80;99.90;;;;;;5006507;28;20365;-86
2023/12/07 11:27:25;;;;;;;33.15;22.65;;;3.70;99.90;;;;;;4995386;28;20044;-86
2023/12/07 11:29:51;;;;;;;28.10;21.30;;;3.80;99.90;;;;;;4996203;28;20073;-87
2023/12/07 11:32:17;;;;;;;30.23;20.38;;;3.80;99.90;;;;;;4997023;28;20192;-85
2023/12/07 11:34:43;;;;;;;28.45;19.80;;;3.80;99.90;;;;;;5000814;28;20048;-85
2023/12/07 11:37:10;;;;;;;20.92;17.15;;;3.40;99.90;;;;;;4993493;28;20048;-86
2023/12/07 11:39:38;;;;;;;24.63;17.30;;;3.30;99.90;;;;;;5012912;28;20520;-87
2023/12/07 11:42:10;;;;;;;22.30;17.30;;;3.10;99.90;;;;;;5010027;28;20033;-86
2023/12/07 11:44:39;;;;;;;22.73;17.70;;;3.00;99.90;;;;;;5025828;28;20049;-87
2023/12/07 11:47:06;;;;;;;24.80;18.15;;;2.80;99.90;;;;;;4993747;28;20073;-87
2023/12/07 11:49:32;;;;;;;25.95;18.25;;;2.90;99.90;;;;;;5011256;28;20069;-87
2023/12/07 11:51:59;;;;;;;24.45;19.10;;;2.80;99.90;;;;;;5001253;28;20088;-86
2023/12/07 11:54:26;;;;;;;27.60;19.27;;;2.80;99.90;;;;;;5000674;28;20563;-85
2023/12/07 11:56:56;;;;;;;25.02;19.38;;;3.00;99.90;;;;;;5011262;28;20682;-87
2023/12/07 11:59:22;;;;;;;27.15;19.98;;;2.90;99.90;;;;;;4990397;28;20551;-86
2023/12/07 12:01:48;;;;;;;25.40;19.85;;;2.90;99.90;;;;;;4998542;28;20049;-86
2023/12/07 12:04:18;;;;;;;26.15;19.17;;;2.90;99.90;;;;;;4996602;28;20091;-86
2023/12/07 12:06:45;;;;;;;26.48;19.75;;;2.90;99.90;;;;;;5012389;28;20038;-87
2023/12/07 12:09:16;;;;;;;27.25;20.30;;;3.00;99.90;;;;;;5007550;28;20038;-86
2023/12/07 12:11:49;;;;;;;32.60;21.33;;;2.90;99.90;;;;;;5014070;28;20461;-86
2023/12/07 12:14:18;;;;;;;29.45;21.55;;;3.00;99.90;;;;;;5001378;28;20044;-87
2023/12/07 12:16:47;;;;;;;30.42;21.63;;;2.90;99.90;;;;;;5011199;28;20059;-87
2023/12/07 12:19:16;;;;;;;32.38;21.05;;;3.10;99.90;;;;;;5001494;28;20049;-86
2023/12/07 12:21:43;;;;;;;30.65;22.38;;;3.10;99.90;;;;;;4996763;28;20049;-87
2023/12/07 12:24:10;;;;;;;30.83;22.73;;;3.00;99.90;;;;;;5029463;28;20057;-87
2023/12/07 12:26:38;;;;;;;32.28;22.45;;;3.30;99.90;;;;;;5008149;28;20037;-87
2023/12/07 12:29:05;;;;;;;31.00;22.27;;;3.30;99.90;;;;;;5006188;28;20038;-87
2023/12/07 12:31:31;;;;;;;30.73;22.70;;;3.20;99.90;;;;;;5000807;28;20095;-86
2023/12/07 12:33:57;;;;;;;29.83;21.70;;;3.20;99.90;;;;;;4995487;28;20436;-87